createdAt,value
2019-03-21T00:02:20.818Z,102559.92
2019-03-21T00:04:52.635Z,102560.44
2019-03-21T00:07:24.233Z,102560.44
2019-03-21T00:10:32.524Z,102563.97
2019-03-21T00:13:04.116Z,102562.66
2019-03-21T00:15:52.475Z,102565.83
2019-03-21T00:18:24.137Z,102564.92
2019-03-21T00:20:55.748Z,102571.22
2019-03-21T00:23:27.341Z,102568.14
2019-03-21T00:25:58.908Z,102570.31
2019-03-21T00:28:30.493Z,102578.41
2019-03-21T00:31:02.085Z,102574.88
2019-03-21T00:33:35.150Z,102573.05
2019-03-21T00:36:06.813Z,102579.31
2019-03-21T00:38:38.384Z,102567.22
2019-03-21T00:41:09.983Z,102567.61
2019-03-21T00:43:41.573Z,102566.75
2019-03-21T00:46:13.157Z,102569.92
2019-03-21T00:48:44.747Z,102563.58
2019-03-21T00:51:16.246Z,102567.62
2019-03-21T00:53:47.827Z,102565.40
2019-03-21T00:56:19.367Z,102570.31
2019-03-21T00:58:50.877Z,102560.88
2019-03-21T01:01:22.411Z,102564.92
2019-03-21T01:03:54.000Z,102560.44
2019-03-21T01:06:26.574Z,102553.70
2019-03-21T01:08:58.077Z,102553.27
2019-03-21T01:11:29.592Z,102548.87
2019-03-21T01:14:01.273Z,102547.91
2019-03-21T01:16:32.791Z,102543.88
2019-03-21T01:19:04.462Z,102542.56
2019-03-21T01:21:36.142Z,102539.87
2019-03-21T01:24:07.711Z,102544.31
2019-03-21T01:26:39.199Z,102548.39
2019-03-21T01:29:10.696Z,102547.48
2019-03-21T01:31:42.350Z,102544.35
2019-03-21T01:34:13.902Z,102539.00
2019-03-21T01:36:45.424Z,102540.31
2019-03-21T01:39:16.917Z,102547.95
2019-03-21T01:41:48.413Z,102541.22
2019-03-21T01:44:19.975Z,102544.74
2019-03-21T01:46:51.483Z,102537.61
2019-03-21T01:49:24.069Z,102543.48
2019-03-21T01:51:56.659Z,102544.30
2019-03-21T01:54:28.185Z,102542.91
2019-03-21T01:56:59.751Z,102540.66
2019-03-21T01:59:31.264Z,102537.52
2019-03-21T02:02:02.849Z,102543.39
2019-03-21T02:04:34.431Z,102543.39
2019-03-21T02:07:06.033Z,102547.78
2019-03-21T02:09:37.522Z,102551.40
2019-03-21T02:12:09.038Z,102555.00
2019-03-21T02:14:51.612Z,102545.52
2019-03-21T02:17:13.842Z,102539.65
2019-03-21T02:19:45.366Z,102536.52
2019-03-21T02:22:16.947Z,102538.83
2019-03-21T02:24:48.628Z,102536.17
2019-03-21T02:27:20.196Z,102539.78
2019-03-21T02:29:51.774Z,102539.30
2019-03-21T02:32:23.290Z,102536.61
2019-03-21T02:34:54.881Z,102533.56
2019-03-21T02:37:26.404Z,102530.82
2019-03-21T02:39:59.932Z,102533.47
2019-03-21T02:42:31.251Z,102527.60
2019-03-21T02:45:09.035Z,102535.66
2019-03-21T02:47:37.069Z,102526.64
2019-03-21T02:50:20.997Z,102526.22
2019-03-21T02:52:52.498Z,102522.20
2019-03-21T02:55:25.293Z,102521.77
2019-03-21T02:57:56.865Z,102515.60
2019-03-21T03:00:35.335Z,102516.56
2019-03-21T03:03:09.131Z,102513.34
2019-03-21T03:05:40.632Z,102517.39
2019-03-21T03:08:12.197Z,102519.22
2019-03-21T03:10:53.906Z,102519.66
2019-03-21T03:13:25.900Z,102524.13
2019-03-21T03:15:57.503Z,102519.22
2019-03-21T03:18:28.978Z,102514.73
2019-03-21T03:21:00.491Z,102515.66
2019-03-21T03:23:32.058Z,102525.56
2019-03-21T03:26:03.663Z,102522.34
2019-03-21T03:28:42.709Z,102526.43
2019-03-21T03:31:14.218Z,102528.66
2019-03-21T03:33:46.070Z,102523.30
2019-03-21T03:36:17.806Z,102526.43
2019-03-21T03:38:49.316Z,102519.30
2019-03-21T03:41:22.378Z,102520.17
2019-03-21T03:43:53.917Z,102522.87
2019-03-21T03:46:25.441Z,102525.56
2019-03-21T03:48:56.960Z,102526.04
2019-03-21T03:51:28.504Z,102537.69
2019-03-21T03:54:00.090Z,102538.95
2019-03-21T03:56:31.603Z,102537.22
2019-03-21T03:59:09.423Z,102536.34
2019-03-21T04:01:39.977Z,102535.48
2019-03-21T04:04:11.474Z,102524.30
2019-03-21T04:06:42.992Z,102525.61
2019-03-21T04:09:14.517Z,102532.39
2019-03-21T04:11:46.022Z,102532.83
2019-03-21T04:14:17.545Z,102536.47
2019-03-21T04:16:49.083Z,102534.65
2019-03-21T04:19:20.652Z,102540.08
2019-03-21T04:21:52.175Z,102536.03
2019-03-21T04:24:23.756Z,102539.68
2019-03-21T04:26:55.273Z,102545.94
2019-03-21T04:29:26.846Z,102545.03
2019-03-21T04:31:58.434Z,102546.81
2019-03-21T04:34:29.940Z,102545.03
2019-03-21T04:37:01.577Z,102546.38
2019-03-21T04:39:33.108Z,102548.59
2019-03-21T04:42:04.746Z,102546.38
2019-03-21T04:44:36.335Z,102550.34
2019-03-21T04:47:07.857Z,102548.56
2019-03-21T04:49:39.445Z,102558.91
2019-03-21T04:52:10.967Z,102559.30
2019-03-21T04:54:42.494Z,102562.47
2019-03-21T04:57:14.056Z,102563.34
2019-03-21T04:59:45.636Z,102567.91
2019-03-21T05:02:17.305Z,102573.69
2019-03-21T05:04:48.910Z,102579.91
2019-03-21T05:07:20.405Z,102574.56
2019-03-21T05:09:51.990Z,102583.13
2019-03-21T05:12:23.500Z,102577.30
2019-03-21T05:14:55.010Z,102574.20
2019-03-21T05:17:26.533Z,102578.17
2019-03-21T05:19:58.025Z,102582.17
2019-03-21T05:22:32.246Z,102583.45
2019-03-21T05:25:04.757Z,102589.75
2019-03-21T05:27:36.292Z,102589.39
2019-03-21T05:30:30.689Z,102584.44
2019-03-21T05:33:02.177Z,102583.01
2019-03-21T05:35:33.702Z,102585.66
2019-03-21T05:38:06.466Z,102588.36
2019-03-21T05:40:38.139Z,102590.98
2019-03-21T05:43:29.071Z,102594.58
2019-03-21T05:46:02.196Z,102597.72
2019-03-21T05:48:33.712Z,102593.23
2019-03-21T05:51:05.340Z,102593.63
2019-03-21T05:53:36.856Z,102602.55
2019-03-21T05:56:09.007Z,102601.63
2019-03-21T05:58:40.641Z,102603.77
2019-03-21T06:01:13.497Z,102611.42
2019-03-21T06:03:52.853Z,102605.46
2019-03-21T06:06:38.618Z,102606.80
2019-03-21T06:09:15.408Z,102607.16
2019-03-21T06:11:54.615Z,102617.03
2019-03-21T06:14:26.492Z,102620.64
2019-03-21T06:16:58.278Z,102627.30
2019-03-21T06:19:34.685Z,102627.77
2019-03-21T06:22:25.867Z,102634.41
2019-03-21T06:25:21.779Z,102633.93
2019-03-21T06:27:53.322Z,102636.72
2019-03-21T06:30:24.848Z,102642.51
2019-03-21T06:32:56.529Z,102643.86
2019-03-21T06:35:28.072Z,102646.94
2019-03-21T06:37:59.650Z,102643.22
2019-03-21T06:40:32.755Z,102649.44
2019-03-21T06:43:04.328Z,102646.09
2019-03-21T06:45:47.346Z,102642.68
2019-03-21T06:48:09.156Z,102639.69
2019-03-21T06:50:40.700Z,102646.41
2019-03-21T06:53:12.210Z,102637.59
2019-03-21T06:55:43.734Z,102638.04
2019-03-21T06:58:15.254Z,102640.22
2019-03-21T07:00:46.774Z,102643.98
2019-03-21T07:03:18.644Z,102649.89
2019-03-21T07:05:50.393Z,102649.44
2019-03-21T07:08:22.038Z,102655.47
2019-03-21T07:10:53.563Z,102658.00
2019-03-21T07:13:25.105Z,102664.86
2019-03-21T07:15:56.661Z,102670.10
2019-03-21T07:18:28.162Z,102675.05
2019-03-21T07:21:01.161Z,102675.21
2019-03-21T07:23:32.880Z,102677.98
2019-03-21T07:26:06.823Z,102673.57
2019-03-21T07:28:39.547Z,102680.78
2019-03-21T07:31:11.467Z,102681.26
2019-03-21T07:33:43.058Z,102678.19
2019-03-21T07:36:14.657Z,102687.02
2019-03-21T07:38:46.231Z,102685.09
2019-03-21T07:41:17.761Z,102687.64
2019-03-21T07:43:49.282Z,102686.35
2019-03-21T07:46:20.936Z,102694.56
2019-03-21T07:48:52.453Z,102697.09
2019-03-21T07:51:24.001Z,102687.59
2019-03-21T07:53:55.518Z,102690.69
2019-03-21T07:56:27.042Z,102687.27
2019-03-21T07:58:58.550Z,102682.92
2019-03-21T08:01:30.069Z,102678.95
2019-03-21T08:04:02.989Z,102685.42
2019-03-21T08:06:34.856Z,102691.89
2019-03-21T08:09:08.086Z,102691.27
2019-03-21T08:11:41.088Z,102690.68
2019-03-21T08:14:12.652Z,102697.39
2019-03-21T08:16:44.174Z,102696.80
2019-03-21T08:19:15.775Z,102701.34
2019-03-21T08:21:47.278Z,102704.84
2019-03-21T08:24:18.784Z,102706.28
2019-03-21T08:26:50.310Z,102707.19
2019-03-21T08:29:21.830Z,102709.41
2019-03-21T08:31:53.348Z,102707.98
2019-03-21T08:34:24.871Z,102705.28
2019-03-21T08:36:56.378Z,102708.91
2019-03-21T08:39:27.901Z,102703.12
2019-03-21T08:41:59.494Z,102702.22
2019-03-21T08:44:31.018Z,102697.08
2019-03-21T08:47:02.543Z,102696.86
2019-03-21T08:49:34.141Z,102694.06
2019-03-21T08:52:06.732Z,102697.98
2019-03-21T08:54:39.334Z,102696.30
2019-03-21T08:57:10.845Z,102689.08
2019-03-21T08:59:42.367Z,102690.05
2019-03-21T09:02:13.890Z,102677.56
2019-03-21T09:04:45.556Z,102677.16
2019-03-21T09:07:17.162Z,102671.36
2019-03-21T09:09:48.748Z,102683.39
2019-03-21T09:12:20.257Z,102678.59
2019-03-21T09:14:51.851Z,102675.56
2019-03-21T09:17:23.455Z,102684.95
2019-03-21T09:19:54.968Z,102675.31
2019-03-21T09:22:27.486Z,102687.24
2019-03-21T09:24:59.082Z,102685.38
2019-03-21T09:27:32.415Z,102683.43
2019-03-21T09:30:06.709Z,102689.95
2019-03-21T09:32:38.310Z,102685.47
2019-03-21T09:35:12.373Z,102684.36
2019-03-21T09:37:43.038Z,102696.52
2019-03-21T09:40:14.555Z,102684.41
2019-03-21T09:42:46.060Z,102682.38
2019-03-21T09:45:17.659Z,102678.05
2019-03-21T09:47:52.499Z,102677.78
2019-03-21T09:50:29.613Z,102680.20
2019-03-21T09:53:01.145Z,102672.48
2019-03-21T09:55:32.711Z,102671.79
2019-03-21T09:58:04.219Z,102679.36
2019-03-21T10:00:38.635Z,102678.13
2019-03-21T10:03:10.627Z,102690.54
2019-03-21T10:05:42.296Z,102687.85
2019-03-21T10:08:13.830Z,102692.23
2019-03-21T10:10:45.426Z,102696.53
2019-03-21T10:13:16.951Z,102691.50
2019-03-21T10:15:48.464Z,102695.00
2019-03-21T10:18:19.983Z,102691.66
2019-03-21T10:20:51.594Z,102687.95
2019-03-21T10:23:23.120Z,102687.57
2019-03-21T10:25:55.706Z,102692.17
2019-03-21T10:28:27.203Z,102691.87
2019-03-21T10:30:58.841Z,102686.94
2019-03-21T10:33:30.434Z,102685.02
2019-03-21T10:36:01.961Z,102687.85
2019-03-21T10:38:33.544Z,102688.02
2019-03-21T10:41:05.055Z,102688.22
2019-03-21T10:43:36.580Z,102685.52
2019-03-21T10:46:08.105Z,102685.05
2019-03-21T10:48:39.706Z,102682.59
2019-03-21T10:51:11.446Z,102677.45
2019-03-21T10:53:42.967Z,102679.20
2019-03-21T10:56:17.734Z,102678.09
2019-03-21T10:58:54.815Z,102666.55
2019-03-21T11:01:26.309Z,102664.55
2019-03-21T11:03:57.815Z,102666.63
2019-03-21T11:06:29.485Z,102671.59
2019-03-21T11:09:07.007Z,102669.63
2019-03-21T11:11:38.536Z,102675.96
2019-03-21T11:14:12.535Z,102671.00
2019-03-21T11:16:47.028Z,102651.44
2019-03-21T11:19:18.536Z,102660.10
2019-03-21T11:21:50.784Z,102653.12
2019-03-21T11:24:22.858Z,102650.05
2019-03-21T11:26:56.098Z,102648.06
2019-03-21T11:29:27.567Z,102648.88
2019-03-21T11:31:59.065Z,102637.16
2019-03-21T11:34:30.564Z,102635.48
2019-03-21T11:37:02.333Z,102635.31
2019-03-21T11:39:34.083Z,102637.20
2019-03-21T11:42:06.813Z,102636.40
2019-03-21T11:44:38.338Z,102636.94
2019-03-21T11:47:09.921Z,102634.59
2019-03-21T11:49:41.546Z,102630.84
2019-03-21T11:52:18.229Z,102627.70
2019-03-21T11:54:46.430Z,102611.45
2019-03-21T11:57:18.012Z,102617.53
2019-03-21T11:59:51.984Z,102610.90
2019-03-21T12:02:27.476Z,102608.31
2019-03-21T12:04:56.165Z,102606.76
2019-03-21T12:07:27.757Z,102606.44
2019-03-21T12:09:59.360Z,102615.07
2019-03-21T12:12:31.132Z,102608.44
2019-03-21T12:15:02.734Z,102612.11
2019-03-21T12:17:34.434Z,102609.53
2019-03-21T12:20:29.953Z,102604.52
2019-03-21T12:23:02.097Z,102600.44
2019-03-21T12:25:33.667Z,102598.91
2019-03-21T12:28:05.172Z,102601.76
2019-03-21T12:30:38.887Z,102603.23
2019-03-21T12:33:10.438Z,102607.41
2019-03-21T12:35:43.539Z,102610.41
2019-03-21T12:38:15.063Z,102605.65
2019-03-21T12:40:46.571Z,102611.20
2019-03-21T12:43:18.664Z,102597.89
2019-03-21T12:45:50.255Z,102611.05
2019-03-21T12:48:22.343Z,102610.50
2019-03-21T12:50:53.884Z,102604.66
2019-03-21T12:53:25.477Z,102601.60
2019-03-21T12:55:57.034Z,102599.38
2019-03-21T12:58:28.565Z,102584.86
2019-03-21T13:01:00.194Z,102579.69
2019-03-21T13:03:34.205Z,102588.16
2019-03-21T13:06:07.438Z,102585.52
2019-03-21T13:08:38.943Z,102582.20
2019-03-21T13:11:10.504Z,102580.30
2019-03-21T13:13:43.615Z,102582.14
2019-03-21T13:16:15.116Z,102577.44
2019-03-21T13:18:46.686Z,102576.84
2019-03-21T13:21:18.379Z,102569.02
2019-03-21T13:23:50.053Z,102561.45
2019-03-21T13:26:21.573Z,102567.30
2019-03-21T13:28:53.091Z,102571.56
2019-03-21T13:31:24.611Z,102559.20
2019-03-21T13:33:56.226Z,102564.23
2019-03-21T13:36:27.741Z,102565.55
2019-03-21T13:38:59.265Z,102562.36
2019-03-21T13:41:30.785Z,102556.95
2019-03-21T13:44:03.421Z,102553.05
2019-03-21T13:46:34.944Z,102545.35
2019-03-21T13:49:06.513Z,102551.08
2019-03-21T13:51:38.038Z,102545.11
2019-03-21T13:54:09.648Z,102540.17
2019-03-21T13:56:41.249Z,102527.44
2019-03-21T13:59:12.765Z,102532.74
2019-03-21T14:01:44.281Z,102530.88
2019-03-21T14:04:15.783Z,102536.23
2019-03-21T14:06:47.303Z,102532.89
2019-03-21T14:09:20.359Z,102534.64
2019-03-21T14:11:51.957Z,102521.38
2019-03-21T14:14:23.483Z,102531.67
2019-03-21T14:16:56.091Z,102527.59
2019-03-21T14:19:27.601Z,102522.42
2019-03-21T14:21:59.146Z,102526.23
2019-03-21T14:24:36.306Z,102520.19
2019-03-21T14:27:03.939Z,102519.51
2019-03-21T14:29:35.463Z,102529.97
2019-03-21T14:32:06.980Z,102530.55
2019-03-21T14:34:38.505Z,102533.62
2019-03-21T14:37:10.022Z,102533.10
2019-03-21T14:39:41.545Z,102542.39
2019-03-21T14:42:13.062Z,102534.77
2019-03-21T14:44:44.668Z,102533.73
2019-03-21T14:47:16.192Z,102537.78
2019-03-21T14:49:47.758Z,102533.93
2019-03-21T14:52:19.260Z,102540.29
2019-03-21T14:54:50.904Z,102534.59
2019-03-21T14:57:22.420Z,102541.79
2019-03-21T14:59:53.943Z,102538.96
2019-03-21T15:02:25.552Z,102536.06
2019-03-21T15:04:57.075Z,102539.82
2019-03-21T15:07:28.596Z,102545.47
2019-03-21T15:10:00.373Z,102545.53
2019-03-21T15:12:32.037Z,102550.47
2019-03-21T15:15:05.401Z,102546.66
2019-03-21T15:17:36.977Z,102545.61
2019-03-21T15:20:12.196Z,102551.17
2019-03-21T15:22:43.852Z,102545.07
2019-03-21T15:25:15.372Z,102551.95
2019-03-21T15:27:46.890Z,102546.95
2019-03-21T15:30:20.190Z,102541.02
2019-03-21T15:32:51.894Z,102539.31
2019-03-21T15:35:25.144Z,102543.88
2019-03-21T15:37:56.764Z,102536.17
2019-03-21T15:40:28.387Z,102537.95
2019-03-21T15:42:59.918Z,102543.45
2019-03-21T15:45:31.603Z,102529.08
2019-03-21T15:48:03.116Z,102533.97
2019-03-21T15:50:40.105Z,102531.98
2019-03-21T15:53:22.172Z,102529.02
2019-03-21T15:55:52.884Z,102526.47
2019-03-21T15:58:26.121Z,102521.91
2019-03-21T16:00:59.183Z,102532.74
2019-03-21T16:03:35.758Z,102528.36
2019-03-21T16:06:08.658Z,102527.55
2019-03-21T16:08:40.218Z,102532.63
2019-03-21T16:11:20.750Z,102527.73
2019-03-21T16:13:52.276Z,102533.85
2019-03-21T16:16:23.941Z,102533.42
2019-03-21T16:18:55.482Z,102524.38
2019-03-21T16:21:36.691Z,102523.54
2019-03-21T16:24:12.148Z,102514.77
2019-03-21T16:26:43.674Z,102520.40
2019-03-21T16:29:15.274Z,102526.19
2019-03-21T16:31:49.147Z,102523.44
2019-03-21T16:34:20.788Z,102518.05
2019-03-21T16:36:52.626Z,102531.16
2019-03-21T16:40:43.602Z,102530.75
2019-03-21T16:42:37.120Z,102533.44
2019-03-21T16:45:11.418Z,102522.70
2019-03-21T16:47:45.905Z,102526.25
2019-03-21T16:50:17.478Z,102525.91
2019-03-21T16:52:49.022Z,102530.80
2019-03-21T16:55:20.865Z,102533.53
2019-03-21T16:57:56.275Z,102530.25
2019-03-21T17:00:27.870Z,102535.81
2019-03-21T17:02:59.464Z,102528.78
2019-03-21T17:05:30.987Z,102529.47
2019-03-21T17:08:11.037Z,102535.39
2019-03-21T17:10:36.036Z,102539.97
2019-03-21T17:13:08.752Z,102537.67
2019-03-21T17:15:40.519Z,102541.98
2019-03-21T17:18:12.159Z,102546.91
2019-03-21T17:20:43.678Z,102544.28
2019-03-21T17:23:15.257Z,102546.58
2019-03-21T17:25:46.851Z,102543.79
2019-03-21T17:28:18.477Z,102551.22
2019-03-21T17:30:51.068Z,102551.11
2019-03-21T17:33:22.568Z,102556.95
2019-03-21T17:35:54.097Z,102558.89
2019-03-21T17:38:25.743Z,102559.83
2019-03-21T17:40:58.885Z,102561.25
2019-03-21T17:43:30.391Z,102564.73
2019-03-21T17:46:01.987Z,102566.08
2019-03-21T17:48:33.586Z,102575.11
2019-03-21T17:51:05.104Z,102582.87
2019-03-21T17:53:36.611Z,102584.52
2019-03-21T17:56:08.130Z,102576.25
2019-03-21T17:58:39.689Z,102581.80
2019-03-21T18:01:11.211Z,102581.81
2019-03-21T18:03:42.735Z,102593.19
2019-03-21T18:06:14.261Z,102592.25
2019-03-21T18:08:45.858Z,102589.92
2019-03-21T18:11:17.386Z,102590.54
2019-03-21T18:13:48.982Z,102590.11
2019-03-21T18:16:20.508Z,102596.67
2019-03-21T18:18:52.014Z,102587.98
2019-03-21T18:21:23.667Z,102583.92
2019-03-21T18:23:55.193Z,102587.94
2019-03-21T18:26:26.777Z,102579.30
2019-03-21T18:28:58.314Z,102581.94
2019-03-21T18:31:29.845Z,102577.82
2019-03-21T18:34:01.347Z,102576.84
2019-03-21T18:36:32.871Z,102578.66
2019-03-21T18:39:06.902Z,102578.65
2019-03-21T18:41:38.508Z,102583.64
2019-03-21T18:44:10.116Z,102581.43
2019-03-21T18:46:41.689Z,102576.89
2019-03-21T18:49:13.217Z,102578.75
2019-03-21T18:51:44.733Z,102578.81
2019-03-21T18:54:16.259Z,102585.13
2019-03-21T18:56:47.767Z,102585.22
2019-03-21T18:59:19.302Z,102594.11
2019-03-21T19:01:58.430Z,102590.56
2019-03-21T19:04:24.191Z,102590.13
2019-03-21T19:06:55.796Z,102586.98
2019-03-21T19:09:27.325Z,102578.10
2019-03-21T19:11:58.850Z,102579.81
2019-03-21T19:14:30.381Z,102578.97
2019-03-21T19:17:01.949Z,102574.47
2019-03-21T19:19:33.472Z,102570.84
2019-03-21T19:22:05.038Z,102575.38
2019-03-21T19:24:36.551Z,102577.17
2019-03-21T19:27:08.076Z,102574.91
2019-03-21T19:29:39.705Z,102570.91
2019-03-21T19:32:11.220Z,102567.28
2019-03-21T19:34:42.755Z,102564.16
2019-03-21T19:37:14.413Z,102557.48
2019-03-21T19:39:45.942Z,102562.37
2019-03-21T19:42:17.546Z,102564.58
2019-03-21T19:44:49.215Z,102566.44
2019-03-21T19:47:25.734Z,102561.03
2019-03-21T19:49:54.053Z,102561.52
2019-03-21T19:52:25.548Z,102560.66
2019-03-21T19:54:57.179Z,102562.53
2019-03-21T19:57:28.788Z,102561.67
2019-03-21T20:00:00.395Z,102562.94
2019-03-21T20:02:32.016Z,102558.39
2019-03-21T20:05:04.209Z,102556.61
2019-03-21T20:07:35.802Z,102557.48
2019-03-21T20:10:09.505Z,102555.67
2019-03-21T20:12:41.187Z,102559.19
2019-03-21T20:15:14.903Z,102552.44
2019-03-21T20:17:46.711Z,102557.84
2019-03-21T20:20:19.126Z,102556.06
2019-03-21T20:22:51.160Z,102557.90
2019-03-21T20:25:22.786Z,102570.49
2019-03-21T20:27:54.420Z,102572.27
2019-03-21T20:30:26.020Z,102571.98
2019-03-21T20:32:57.554Z,102567.91
2019-03-21T20:35:29.114Z,102571.00
2019-03-21T20:38:00.712Z,102572.34
2019-03-21T20:40:32.313Z,102571.98
2019-03-21T20:43:03.836Z,102566.58
2019-03-21T20:45:35.400Z,102562.07
2019-03-21T20:48:06.998Z,102562.02
2019-03-21T20:50:38.594Z,102557.41
2019-03-21T20:53:10.191Z,102554.33
2019-03-21T20:55:41.758Z,102556.98
2019-03-21T20:58:13.308Z,102559.37
2019-03-21T21:00:44.829Z,102563.42
2019-03-21T21:03:17.432Z,102566.08
2019-03-21T21:05:50.556Z,102564.30
2019-03-21T21:08:22.153Z,102564.72
2019-03-21T21:10:53.683Z,102566.13
2019-03-21T21:13:25.262Z,102559.31
2019-03-21T21:15:56.789Z,102562.94
2019-03-21T21:18:28.291Z,102568.34
2019-03-21T21:20:59.902Z,102564.73
2019-03-21T21:23:31.428Z,102560.23
2019-03-21T21:26:05.647Z,102562.50
2019-03-21T21:28:36.182Z,102562.22
2019-03-21T21:31:07.767Z,102568.05
2019-03-21T21:33:39.432Z,102565.84
2019-03-21T21:36:21.601Z,102570.83
2019-03-21T21:38:44.237Z,102566.78
2019-03-21T21:41:16.826Z,102557.86
2019-03-21T21:43:48.344Z,102561.49
2019-03-21T21:46:20.017Z,102560.58
2019-03-21T21:48:53.654Z,102558.30
2019-03-21T21:51:27.349Z,102556.14
2019-03-21T21:53:58.850Z,102553.89
2019-03-21T21:56:30.390Z,102552.52
2019-03-21T21:59:01.985Z,102561.19
2019-03-21T22:01:33.515Z,102558.94
2019-03-21T22:04:06.147Z,102557.22
2019-03-21T22:06:37.619Z,102560.35
2019-03-21T22:09:09.221Z,102564.83
2019-03-21T22:11:40.770Z,102558.98
2019-03-21T22:14:12.271Z,102561.70
2019-03-21T22:16:43.805Z,102550.89
2019-03-21T22:19:15.332Z,102547.39
2019-03-21T22:21:46.834Z,102546.03
2019-03-21T22:24:18.391Z,102547.27
2019-03-21T22:26:49.906Z,102551.81
2019-03-21T22:29:21.436Z,102551.80
2019-03-21T22:31:53.036Z,102549.17
2019-03-21T22:34:24.556Z,102555.44
2019-03-21T22:36:56.056Z,102556.30
2019-03-21T22:39:27.580Z,102554.02
2019-03-21T22:41:59.086Z,102557.20
2019-03-21T22:44:30.587Z,102554.93
2019-03-21T22:47:02.163Z,102550.03
2019-03-21T22:49:33.683Z,102550.95
2019-03-21T22:52:05.228Z,102545.61
2019-03-21T22:54:36.740Z,102543.41
2019-03-21T22:57:08.304Z,102546.52
2019-03-21T22:59:40.108Z,102536.66
2019-03-21T23:02:13.406Z,102537.20
2019-03-21T23:04:45.062Z,102535.95
2019-03-21T23:07:16.651Z,102535.17
2019-03-21T23:09:48.177Z,102536.09
2019-03-21T23:12:19.707Z,102524.98
2019-03-21T23:14:51.237Z,102525.47
2019-03-21T23:17:22.829Z,102531.84
2019-03-21T23:19:54.440Z,102530.56
2019-03-21T23:22:26.061Z,102530.23
2019-03-21T23:24:57.562Z,102530.18
2019-03-21T23:27:29.168Z,102528.79
2019-03-21T23:30:00.897Z,102534.23
2019-03-21T23:32:32.466Z,102527.92
2019-03-21T23:35:07.325Z,102532.93
2019-03-21T23:37:39.058Z,102532.52
2019-03-21T23:40:13.012Z,102528.55
2019-03-21T23:42:44.716Z,102536.22
2019-03-21T23:45:20.015Z,102534.97
2019-03-21T23:47:51.526Z,102537.68
2019-03-21T23:50:23.367Z,102532.33
2019-03-21T23:52:55.034Z,102531.02
2019-03-21T23:55:26.556Z,102533.73
2019-03-21T23:57:58.111Z,102538.73
